sensor_id;sensor_type;location;lat;lon;timestamp;pressure;altitude;pressure_sealevel;temperature;humidity
61018;BME280;48171;51.550;5.434;2023-03-16T00:00:07;101803.09;;;4.13;88.18
61018;BME280;48171;51.550;5.434;2023-03-16T00:02:39;101805.78;;;4.14;87.99
61018;BME280;48171;51.550;5.434;2023-03-16T00:05:05;101811.03;;;4.16;88.27
61018;BME280;48171;51.550;5.434;2023-03-16T00:07:30;101805.84;;;4.17;87.47
61018;BME280;48171;51.550;5.434;2023-03-16T00:09:55;101805.06;;;4.20;87.91
61018;BME280;48171;51.550;5.434;2023-03-16T00:12:21;101796.41;;;4.21;88.05
61018;BME280;48171;51.550;5.434;2023-03-16T00:14:47;101790.31;;;4.22;87.52
61018;BME280;48171;51.550;5.434;2023-03-16T00:17:14;101788.63;;;4.23;88.09
61018;BME280;48171;51.550;5.434;2023-03-16T00:19:43;101783.38;;;4.23;87.95
61018;BME280;48171;51.550;5.434;2023-03-16T00:22:10;101786.03;;;4.24;88.03
61018;BME280;48171;51.550;5.434;2023-03-16T00:24:38;101783.41;;;4.24;87.19
61018;BME280;48171;51.550;5.434;2023-03-16T00:27:03;101784.31;;;4.25;87.31
61018;BME280;48171;51.550;5.434;2023-03-16T00:29:29;101787.88;;;4.27;87.24
61018;BME280;48171;51.550;5.434;2023-03-16T00:31:54;101787.03;;;4.28;87.22
61018;BME280;48171;51.550;5.434;2023-03-16T00:34:19;101779.19;;;4.28;87.15
61018;BME280;48171;51.550;5.434;2023-03-16T00:36:46;101773.94;;;4.28;87.39
61018;BME280;48171;51.550;5.434;2023-03-16T00:39:11;101771.31;;;4.28;87.43
61018;BME280;48171;51.550;5.434;2023-03-16T00:41:38;101772.25;;;4.28;87.02
61018;BME280;48171;51.550;5.434;2023-03-16T00:44:04;101768.72;;;4.28;87.37
61018;BME280;48171;51.550;5.434;2023-03-16T00:46:29;101767.00;;;4.28;87.46
61018;BME280;48171;51.550;5.434;2023-03-16T00:48:54;101766.09;;;4.28;87.40
61018;BME280;48171;51.550;5.434;2023-03-16T00:51:20;101766.16;;;4.29;87.27
61018;BME280;48171;51.550;5.434;2023-03-16T00:53:47;101761.81;;;4.30;87.58
61018;BME280;48171;51.550;5.434;2023-03-16T00:56:12;101759.16;;;4.28;87.55
61018;BME280;48171;51.550;5.434;2023-03-16T00:58:38;101750.47;;;4.29;87.15
61018;BME280;48171;51.550;5.434;2023-03-16T01:01:08;101748.72;;;4.30;87.83
61018;BME280;48171;51.550;5.434;2023-03-16T01:03:33;101742.56;;;4.28;87.66
61018;BME280;48171;51.550;5.434;2023-03-16T01:06:06;101743.50;;;4.30;87.56
61018;BME280;48171;51.550;5.434;2023-03-16T01:08:34;101741.72;;;4.29;88.17
61018;BME280;48171;51.550;5.434;2023-03-16T01:11:03;101731.31;;;4.30;87.58
61018;BME280;48171;51.550;5.434;2023-03-16T01:13:29;101726.03;;;4.29;87.73
61018;BME280;48171;51.550;5.434;2023-03-16T01:15:54;101725.19;;;4.30;87.83
61018;BME280;48171;51.550;5.434;2023-03-16T01:18:19;101721.69;;;4.29;87.88
61018;BME280;48171;51.550;5.434;2023-03-16T01:20:44;101707.66;;;4.27;88.24
61018;BME280;48171;51.550;5.434;2023-03-16T01:23:15;101706.00;;;4.29;88.31
61018;BME280;48171;51.550;5.434;2023-03-16T01:25:40;101703.31;;;4.28;88.41
61018;BME280;48171;51.550;5.434;2023-03-16T01:28:06;101706.78;;;4.27;88.58
61018;BME280;48171;51.550;5.434;2023-03-16T01:30:31;101702.44;;;4.27;88.53
61018;BME280;48171;51.550;5.434;2023-03-16T01:32:57;101695.53;;;4.29;88.38
61018;BME280;48171;51.550;5.434;2023-03-16T01:35:22;101692.91;;;4.29;88.36
61018;BME280;48171;51.550;5.434;2023-03-16T01:37:47;101690.28;;;4.29;88.48
61018;BME280;48171;51.550;5.434;2023-03-16T01:40:13;101699.94;;;4.30;88.67
61018;BME280;48171;51.550;5.434;2023-03-16T01:42:45;101697.41;;;4.33;87.82
61018;BME280;48171;51.550;5.434;2023-03-16T01:47:54;101688.81;;;4.37;87.78
61018;BME280;48171;51.550;5.434;2023-03-16T01:50:22;101696.72;;;4.39;87.60
61018;BME280;48171;51.550;5.434;2023-03-16T01:52:47;101694.16;;;4.40;87.86
61018;BME280;48171;51.550;5.434;2023-03-16T01:55:13;101690.69;;;4.41;87.56
61018;BME280;48171;51.550;5.434;2023-03-16T01:57:39;101678.47;;;4.40;87.68
61018;BME280;48171;51.550;5.434;2023-03-16T02:02:35;101682.84;;;4.41;87.83
61018;BME280;48171;51.550;5.434;2023-03-16T02:07:32;101677.66;;;4.43;87.77
61018;BME280;48171;51.550;5.434;2023-03-16T02:09:58;101668.94;;;4.43;88.15
61018;BME280;48171;51.550;5.434;2023-03-16T02:12:24;101664.53;;;4.41;88.02
61018;BME280;48171;51.550;5.434;2023-03-16T02:14:50;101663.69;;;4.43;88.06
61018;BME280;48171;51.550;5.434;2023-03-16T02:17:17;101665.47;;;4.44;88.03
61018;BME280;48171;51.550;5.434;2023-03-16T02:22:08;101663.72;;;4.44;88.01
61018;BME280;48171;51.550;5.434;2023-03-16T02:24:34;101656.78;;;4.45;88.38
61018;BME280;48171;51.550;5.434;2023-03-16T02:27:01;101661.16;;;4.46;88.58
61018;BME280;48171;51.550;5.434;2023-03-16T02:31:53;101663.84;;;4.47;88.85
61018;BME280;48171;51.550;5.434;2023-03-16T02:34:20;101658.47;;;4.44;89.57
61018;BME280;48171;51.550;5.434;2023-03-16T02:36:45;101650.63;;;4.44;89.81
61018;BME280;48171;51.550;5.434;2023-03-16T02:39:11;101653.25;;;4.44;89.65
61018;BME280;48171;51.550;5.434;2023-03-16T02:41:37;101660.16;;;4.42;90.50
61018;BME280;48171;51.550;5.434;2023-03-16T02:46:48;101661.09;;;4.43;90.71
61018;BME280;48171;51.550;5.434;2023-03-16T02:49:24;101655.78;;;4.41;91.23
61018;BME280;48171;51.550;5.434;2023-03-16T02:51:51;101653.97;;;4.38;91.96
61018;BME280;48171;51.550;5.434;2023-03-16T02:54:16;101653.97;;;4.38;91.69
61018;BME280;48171;51.550;5.434;2023-03-16T02:56:42;101653.13;;;4.39;91.95
61018;BME280;48171;51.550;5.434;2023-03-16T02:59:07;101644.38;;;4.39;91.20
61018;BME280;48171;51.550;5.434;2023-03-16T03:01:32;101640.09;;;4.41;91.12
61018;BME280;48171;51.550;5.434;2023-03-16T03:03:59;101640.16;;;4.43;90.51
61018;BME280;48171;51.550;5.434;2023-03-16T03:06:25;101636.63;;;4.42;91.20
61018;BME280;48171;51.550;5.434;2023-03-16T03:08:50;101639.22;;;4.42;90.95
61018;BME280;48171;51.550;5.434;2023-03-16T03:11:15;101641.84;;;4.42;91.36
61018;BME280;48171;51.550;5.434;2023-03-16T03:13:42;101633.13;;;4.41;90.91
61018;BME280;48171;51.550;5.434;2023-03-16T03:16:08;101635.75;;;4.41;90.82
61018;BME280;48171;51.550;5.434;2023-03-16T03:18:34;101628.78;;;4.42;90.58
61018;BME280;48171;51.550;5.434;2023-03-16T03:20:59;101630.44;;;4.40;90.99
61018;BME280;48171;51.550;5.434;2023-03-16T03:23:24;101628.69;;;4.39;91.15
61018;BME280;48171;51.550;5.434;2023-03-16T03:25:49;101622.59;;;4.38;91.19
61018;BME280;48171;51.550;5.434;2023-03-16T03:28:15;101622.59;;;4.40;90.45
61018;BME280;48171;51.550;5.434;2023-03-16T03:30:40;101625.22;;;4.40;90.97
61018;BME280;48171;51.550;5.434;2023-03-16T03:33:05;101623.41;;;4.37;91.00
61018;BME280;48171;51.550;5.434;2023-03-16T03:35:30;101628.69;;;4.39;90.77
61018;BME280;48171;51.550;5.434;2023-03-16T03:37:56;101613.88;;;4.39;90.63
61018;BME280;48171;51.550;5.434;2023-03-16T03:40:21;101615.59;;;4.39;90.64
61018;BME280;48171;51.550;5.434;2023-03-16T03:42:46;101617.34;;;4.38;90.89
61018;BME280;48171;51.550;5.434;2023-03-16T03:45:12;101612.06;;;4.37;91.13
61018;BME280;48171;51.550;5.434;2023-03-16T03:47:38;101619.84;;;4.35;90.65
61018;BME280;48171;51.550;5.434;2023-03-16T03:50:03;101625.09;;;4.35;90.61
61018;BME280;48171;51.550;5.434;2023-03-16T03:52:28;101618.09;;;4.34;90.52
61018;BME280;48171;51.550;5.434;2023-03-16T03:54:53;101618.91;;;4.33;90.97
61018;BME280;48171;51.550;5.434;2023-03-16T03:57:19;101614.53;;;4.32;90.63
61018;BME280;48171;51.550;5.434;2023-03-16T03:59:44;101617.97;;;4.31;91.16
61018;BME280;48171;51.550;5.434;2023-03-16T04:02:09;101611.94;;;4.32;90.93
61018;BME280;48171;51.550;5.434;2023-03-16T04:04:35;101617.19;;;4.34;90.90
61018;BME280;48171;51.550;5.434;2023-03-16T04:07:00;101607.56;;;4.33;90.98
61018;BME280;48171;51.550;5.434;2023-03-16T04:09:25;101595.44;;;4.35;91.28
61018;BME280;48171;51.550;5.434;2023-03-16T04:11:51;101601.50;;;4.34;91.23
61018;BME280;48171;51.550;5.434;2023-03-16T04:14:16;101592.88;;;4.36;90.74
61018;BME280;48171;51.550;5.434;2023-03-16T04:16:41;101592.94;;;4.39;90.88
61018;BME280;48171;51.550;5.434;2023-03-16T04:19:08;101589.44;;;4.39;91.09
61018;BME280;48171;51.550;5.434;2023-03-16T04:21:33;101586.84;;;4.39;90.97
61018;BME280;48171;51.550;5.434;2023-03-16T04:23:58;101579.88;;;4.39;90.74
61018;BME280;48171;51.550;5.434;2023-03-16T04:26:27;101591.22;;;4.40;90.78
61018;BME280;48171;51.550;5.434;2023-03-16T04:28:53;101591.22;;;4.40;90.92
61018;BME280;48171;51.550;5.434;2023-03-16T04:31:18;101591.25;;;4.41;90.66
61018;BME280;48171;51.550;5.434;2023-03-16T04:33:43;101592.13;;;4.42;91.21
61018;BME280;48171;51.550;5.434;2023-03-16T04:36:09;101589.53;;;4.42;90.66
61018;BME280;48171;51.550;5.434;2023-03-16T04:38:34;101585.22;;;4.44;90.61
61018;BME280;48171;51.550;5.434;2023-03-16T04:41:02;101588.78;;;4.46;90.87
61018;BME280;48171;51.550;5.434;2023-03-16T04:43:28;101586.16;;;4.46;91.13
61018;BME280;48171;51.550;5.434;2023-03-16T04:45:53;101587.06;;;4.47;90.97
61018;BME280;48171;51.550;5.434;2023-03-16T04:48:19;101582.78;;;4.50;90.83
61018;BME280;48171;51.550;5.434;2023-03-16T04:50:44;101578.41;;;4.49;90.71
61018;BME280;48171;51.550;5.434;2023-03-16T04:53:11;101575.00;;;4.52;90.55
61018;BME280;48171;51.550;5.434;2023-03-16T04:55:36;101579.41;;;4.53;90.52
61018;BME280;48171;51.550;5.434;2023-03-16T04:58:01;101583.78;;;4.54;90.76
61018;BME280;48171;51.550;5.434;2023-03-16T05:00:26;101575.91;;;4.54;90.36
61018;BME280;48171;51.550;5.434;2023-03-16T05:02:52;101580.34;;;4.55;90.71
61018;BME280;48171;51.550;5.434;2023-03-16T05:05:17;101570.75;;;4.55;91.15
61018;BME280;48171;51.550;5.434;2023-03-16T05:07:43;101581.22;;;4.55;91.15
61018;BME280;48171;51.550;5.434;2023-03-16T05:10:09;101572.47;;;4.55;91.11
61018;BME280;48171;51.550;5.434;2023-03-16T05:12:35;101575.97;;;4.55;91.30
61018;BME280;48171;51.550;5.434;2023-03-16T05:15:00;101566.38;;;4.56;91.49
61018;BME280;48171;51.550;5.434;2023-03-16T05:17:26;101568.13;;;4.55;92.05
61018;BME280;48171;51.550;5.434;2023-03-16T05:19:51;101566.38;;;4.56;92.63
61018;BME280;48171;51.550;5.434;2023-03-16T05:22:16;101558.53;;;4.56;91.81
61018;BME280;48171;51.550;5.434;2023-03-16T05:24:41;101560.28;;;4.55;92.41
61018;BME280;48171;51.550;5.434;2023-03-16T05:27:07;101562.88;;;4.55;92.32
61018;BME280;48171;51.550;5.434;2023-03-16T05:29:32;101563.81;;;4.57;92.36
61018;BME280;48171;51.550;5.434;2023-03-16T05:31:58;101564.69;;;4.58;92.44
61018;BME280;48171;51.550;5.434;2023-03-16T05:34:23;101560.31;;;4.57;93.31
61018;BME280;48171;51.550;5.434;2023-03-16T05:36:48;101556.78;;;4.56;92.58
61018;BME280;48171;51.550;5.434;2023-03-16T05:39:14;101548.13;;;4.57;93.03
61018;BME280;48171;51.550;5.434;2023-03-16T05:41:39;101547.25;;;4.57;92.89
61018;BME280;48171;51.550;5.434;2023-03-16T05:44:04;101546.38;;;4.58;92.91
61018;BME280;48171;51.550;5.434;2023-03-16T05:46:30;101541.16;;;4.58;92.91
61018;BME280;48171;51.550;5.434;2023-03-16T05:48:55;101543.88;;;4.61;92.58
61018;BME280;48171;51.550;5.434;2023-03-16T05:51:20;101539.50;;;4.61;92.90
61018;BME280;48171;51.550;5.434;2023-03-16T05:53:47;101536.00;;;4.61;93.11
61018;BME280;48171;51.550;5.434;2023-03-16T05:56:12;101529.94;;;4.62;92.95
61018;BME280;48171;51.550;5.434;2023-03-16T05:58:37;101533.47;;;4.64;92.29
61018;BME280;48171;51.550;5.434;2023-03-16T06:01:02;101536.13;;;4.66;92.22
61018;BME280;48171;51.550;5.434;2023-03-16T06:03:29;101530.06;;;4.67;92.80
61018;BME280;48171;51.550;5.434;2023-03-16T06:05:55;101530.97;;;4.67;92.43
61018;BME280;48171;51.550;5.434;2023-03-16T06:08:20;101530.97;;;4.67;92.26
61018;BME280;48171;51.550;5.434;2023-03-16T06:10:46;101525.78;;;4.69;92.43
61018;BME280;48171;51.550;5.434;2023-03-16T06:13:12;101533.63;;;4.69;nan
61018;BME280;48171;51.550;5.434;2023-03-16T06:15:37;101519.63;;;4.68;92.35
61018;BME280;48171;51.550;5.434;2023-03-16T06:18:02;101537.94;;;4.68;92.49
61018;BME280;48171;51.550;5.434;2023-03-16T06:20:27;101536.25;;;4.69;92.97
61018;BME280;48171;51.550;5.434;2023-03-16T06:22:53;101536.31;;;4.72;92.24
61018;BME280;48171;51.550;5.434;2023-03-16T06:25:18;101539.91;;;4.75;91.84
61018;BME280;48171;51.550;5.434;2023-03-16T06:27:43;101532.09;;;4.77;92.30
61018;BME280;48171;51.550;5.434;2023-03-16T06:30:09;101530.41;;;4.79;91.99
61018;BME280;48171;51.550;5.434;2023-03-16T06:32:36;101522.56;;;4.79;92.30
61018;BME280;48171;51.550;5.434;2023-03-16T06:35:02;101533.97;;;4.81;92.24
61018;BME280;48171;51.550;5.434;2023-03-16T06:37:27;101526.13;;;4.82;92.16
61018;BME280;48171;51.550;5.434;2023-03-16T06:39:53;101533.19;;;4.85;92.48
61018;BME280;48171;51.550;5.434;2023-03-16T06:42:18;101520.13;;;4.85;93.41
61018;BME280;48171;51.550;5.434;2023-03-16T06:44:43;101525.38;;;4.87;93.19
61018;BME280;48171;51.550;5.434;2023-03-16T06:47:08;101524.53;;;4.88;93.05
61018;BME280;48171;51.550;5.434;2023-03-16T06:49:34;101521.97;;;4.89;94.41
61018;BME280;48171;51.550;5.434;2023-03-16T06:51:59;101511.50;;;4.89;93.44
61018;BME280;48171;51.550;5.434;2023-03-16T06:54:26;101515.97;;;4.93;93.29
61018;BME280;48171;51.550;5.434;2023-03-16T06:56:51;101523.00;;;4.96;93.06
61018;BME280;48171;51.550;5.434;2023-03-16T06:59:16;101518.69;;;4.98;93.36
61018;BME280;48171;51.550;5.434;2023-03-16T07:01:41;101521.38;;;4.99;93.31
61018;BME280;48171;51.550;5.434;2023-03-16T07:04:08;101527.56;;;5.03;93.74
61018;BME280;48171;51.550;5.434;2023-03-16T07:06:33;101518.03;;;5.05;94.00
61018;BME280;48171;51.550;5.434;2023-03-16T07:08:58;101514.66;;;5.09;93.56
61018;BME280;48171;51.550;5.434;2023-03-16T07:11:25;101509.47;;;5.12;93.41
61018;BME280;48171;51.550;5.434;2023-03-16T07:13:51;101508.66;;;5.15;93.20
61018;BME280;48171;51.550;5.434;2023-03-16T07:16:16;101510.50;;;5.17;93.37
61018;BME280;48171;51.550;5.434;2023-03-16T07:18:41;101505.25;;;5.19;93.38
61018;BME280;48171;51.550;5.434;2023-03-16T07:21:08;101501.00;;;5.22;93.58
61018;BME280;48171;51.550;5.434;2023-03-16T07:23:33;101503.66;;;5.24;93.01
61018;BME280;48171;51.550;5.434;2023-03-16T07:25:59;101499.41;;;5.28;92.94
61018;BME280;48171;51.550;5.434;2023-03-16T07:28:24;101491.63;;;5.32;92.56
61018;BME280;48171;51.550;5.434;2023-03-16T07:30:50;101494.34;;;5.35;93.15
61018;BME280;48171;51.550;5.434;2023-03-16T07:33:16;101492.66;;;5.39;92.53
61018;BME280;48171;51.550;5.434;2023-03-16T07:35:41;101495.41;;;5.44;92.36
61018;BME280;48171;51.550;5.434;2023-03-16T07:38:06;101495.53;;;5.48;92.16
61018;BME280;48171;51.550;5.434;2023-03-16T07:40:34;101494.69;;;5.51;92.04
61018;BME280;48171;51.550;5.434;2023-03-16T07:43:00;101499.13;;;5.53;92.01
61018;BME280;48171;51.550;5.434;2023-03-16T07:45:25;101496.56;;;5.55;92.07
61018;BME280;48171;51.550;5.434;2023-03-16T07:47:50;101507.97;;;5.57;91.16
61018;BME280;48171;51.550;5.434;2023-03-16T07:50:15;101495.72;;;5.56;90.91
61018;BME280;48171;51.550;5.434;2023-03-16T07:52:43;101499.25;;;5.58;90.96
61018;BME280;48171;51.550;5.434;2023-03-16T07:55:10;101495.81;;;5.60;90.77
61018;BME280;48171;51.550;5.434;2023-03-16T07:57:36;101499.41;;;5.64;90.90
61018;BME280;48171;51.550;5.434;2023-03-16T08:00:03;101491.59;;;5.67;91.17
61018;BME280;48171;51.550;5.434;2023-03-16T08:02:29;101490.81;;;5.70;90.89
61018;BME280;48171;51.550;5.434;2023-03-16T08:04:55;101490.91;;;5.74;90.72
61018;BME280;48171;51.550;5.434;2023-03-16T08:07:20;101495.38;;;5.78;89.75
61018;BME280;48171;51.550;5.434;2023-03-16T08:09:45;101501.56;;;5.82;89.28
61018;BME280;48171;51.550;5.434;2023-03-16T08:12:11;101492.94;;;5.86;89.29
61018;BME280;48171;51.550;5.434;2023-03-16T08:14:36;101500.84;;;5.89;88.98
61018;BME280;48171;51.550;5.434;2023-03-16T08:17:02;101483.44;;;5.93;88.53
61018;BME280;48171;51.550;5.434;2023-03-16T08:19:28;101499.22;;;5.94;87.78
61018;BME280;48171;51.550;5.434;2023-03-16T08:21:54;101491.50;;;5.99;88.08
61018;BME280;48171;51.550;5.434;2023-03-16T08:24:19;101493.31;;;6.03;87.67
61018;BME280;48171;51.550;5.434;2023-03-16T08:26:44;101496.03;;;6.08;87.57
61018;BME280;48171;51.550;5.434;2023-03-16T08:29:09;101496.97;;;6.10;86.22
61018;BME280;48171;51.550;5.434;2023-03-16T08:31:35;101509.28;;;6.12;86.29
61018;BME280;48171;51.550;5.434;2023-03-16T08:34:00;101496.25;;;6.17;87.05
61018;BME280;48171;51.550;5.434;2023-03-16T08:36:26;101507.72;;;6.20;86.08
61018;BME280;48171;51.550;5.434;2023-03-16T08:38:53;101504.34;;;6.26;86.60
61018;BME280;48171;51.550;5.434;2023-03-16T08:41:21;101508.00;;;6.34;87.08
61018;BME280;48171;51.550;5.434;2023-03-16T08:43:47;101489.72;;;6.39;85.81
61018;BME280;48171;51.550;5.434;2023-03-16T08:46:12;101500.31;;;6.44;85.02
61018;BME280;48171;51.550;5.434;2023-03-16T08:48:38;101493.38;;;6.47;83.83
61018;BME280;48171;51.550;5.434;2023-03-16T08:51:04;101490.84;;;6.52;84.25
61018;BME280;48171;51.550;5.434;2023-03-16T08:53:29;101496.22;;;6.56;83.73
61018;BME280;48171;51.550;5.434;2023-03-16T08:56:04;101495.50;;;6.65;84.50
61018;BME280;48171;51.550;5.434;2023-03-16T08:58:31;101485.03;;;6.68;82.47
61018;BME280;48171;51.550;5.434;2023-03-16T09:00:57;101486.84;;;6.71;83.46
61018;BME280;48171;51.550;5.434;2023-03-16T09:03:22;101481.69;;;6.75;83.80
61018;BME280;48171;51.550;5.434;2023-03-16T09:05:47;101479.06;;;6.75;82.87
61018;BME280;48171;51.550;5.434;2023-03-16T09:08:13;101490.47;;;6.77;83.24
61018;BME280;48171;51.550;5.434;2023-03-16T09:10:38;101471.31;;;6.83;83.18
61018;BME280;48171;51.550;5.434;2023-03-16T09:13:03;101468.84;;;6.91;81.95
61018;BME280;48171;51.550;5.434;2023-03-16T09:15:29;101461.97;;;6.99;82.35
61018;BME280;48171;51.550;5.434;2023-03-16T09:17:54;101468.22;;;7.06;81.32
61018;BME280;48171;51.550;5.434;2023-03-16T09:20:21;101466.63;;;7.15;81.16
61018;BME280;48171;51.550;5.434;2023-03-16T09:22:46;101472.91;;;7.24;80.97
61018;BME280;48171;51.550;5.434;2023-03-16T09:25:12;101468.66;;;7.32;82.01
61018;BME280;48171;51.550;5.434;2023-03-16T09:27:38;101470.50;;;7.39;80.91
61018;BME280;48171;51.550;5.434;2023-03-16T09:30:04;101469.72;;;7.45;80.92
61018;BME280;48171;51.550;5.434;2023-03-16T09:32:30;101467.25;;;7.54;81.45
61018;BME280;48171;51.550;5.434;2023-03-16T09:34:57;101466.47;;;7.61;78.21
61018;BME280;48171;51.550;5.434;2023-03-16T09:37:22;101463.03;;;7.65;77.98
61018;BME280;48171;51.550;5.434;2023-03-16T09:39:48;101448.25;;;7.72;77.58
61018;BME280;48171;51.550;5.434;2023-03-16T09:47:07;101470.34;;;7.85;76.71
61018;BME280;48171;51.550;5.434;2023-03-16T09:49:36;101465.13;;;7.89;77.50
61018;BME280;48171;51.550;5.434;2023-03-16T09:52:19;101461.78;;;8.01;77.88
61018;BME280;48171;51.550;5.434;2023-03-16T09:57:33;101449.81;;;8.25;76.17
61018;BME280;48171;51.550;5.434;2023-03-16T10:00:13;101452.50;;;8.29;76.51
61018;BME280;48171;51.550;5.434;2023-03-16T10:05:24;101441.16;;;8.35;73.61
61018;BME280;48171;51.550;5.434;2023-03-16T10:08:03;101438.50;;;8.33;73.35
61018;BME280;48171;51.550;5.434;2023-03-16T10:15:43;101433.41;;;8.43;73.24
61018;BME280;48171;51.550;5.434;2023-03-16T10:20:35;101419.59;;;8.65;77.11
61018;BME280;48171;51.550;5.434;2023-03-16T10:23:07;101406.59;;;8.84;74.94
61018;BME280;48171;51.550;5.434;2023-03-16T10:25:46;101413.75;;;9.00;73.47
61018;BME280;48171;51.550;5.434;2023-03-16T10:28:13;101420.88;;;9.12;74.67
61018;BME280;48171;51.550;5.434;2023-03-16T10:30:39;101421.81;;;9.20;73.97
61018;BME280;48171;51.550;5.434;2023-03-16T10:33:24;101424.47;;;9.21;70.89
61018;BME280;48171;51.550;5.434;2023-03-16T10:35:54;101420.13;;;9.25;72.84
61018;BME280;48171;51.550;5.434;2023-03-16T10:43:48;101414.06;;;9.38;69.74
61018;BME280;48171;51.550;5.434;2023-03-16T10:46:13;101407.94;;;9.44;68.77
61018;BME280;48171;51.550;5.434;2023-03-16T10:48:38;101409.72;;;9.51;69.52
61018;BME280;48171;51.550;5.434;2023-03-16T10:51:09;101404.53;;;9.57;67.73
61018;BME280;48171;51.550;5.434;2023-03-16T10:53:36;101401.91;;;9.67;69.74
61018;BME280;48171;51.550;5.434;2023-03-16T10:56:08;101393.19;;;9.78;69.03
61018;BME280;48171;51.550;5.434;2023-03-16T10:58:38;101395.00;;;9.89;69.66
61018;BME280;48171;51.550;5.434;2023-03-16T11:01:08;101392.41;;;9.98;67.97
61018;BME280;48171;51.550;5.434;2023-03-16T11:03:39;101385.41;;;10.05;67.70
61018;BME280;48171;51.550;5.434;2023-03-16T11:06:05;101381.91;;;10.10;66.49
61018;BME280;48171;51.550;5.434;2023-03-16T11:08:32;101388.94;;;10.14;66.16
61018;BME280;48171;51.550;5.434;2023-03-16T11:10:59;101376.63;;;10.19;66.91
61018;BME280;48171;51.550;5.434;2023-03-16T11:13:33;101364.31;;;10.23;65.76
61018;BME280;48171;51.550;5.434;2023-03-16T11:16:22;101366.97;;;10.28;66.61
61018;BME280;48171;51.550;5.434;2023-03-16T11:18:55;101365.28;;;10.33;66.57
61018;BME280;48171;51.550;5.434;2023-03-16T11:23:57;101359.13;;;10.45;65.94
61018;BME280;48171;51.550;5.434;2023-03-16T11:26:56;101363.53;;;10.53;66.26
61018;BME280;48171;51.550;5.434;2023-03-16T11:29:18;101351.22;;;10.60;63.54
61018;BME280;48171;51.550;5.434;2023-03-16T11:31:46;101359.16;;;10.61;63.74
61018;BME280;48171;51.550;5.434;2023-03-16T11:34:15;101353.88;;;10.69;64.82
61018;BME280;48171;51.550;5.434;2023-03-16T11:36:49;101350.34;;;10.73;62.92
61018;BME280;48171;51.550;5.434;2023-03-16T11:39:20;101336.25;;;10.77;63.30
61018;BME280;48171;51.550;5.434;2023-03-16T11:44:31;101326.56;;;10.95;63.28
61018;BME280;48171;51.550;5.434;2023-03-16T11:59:48;101313.25;;;11.29;60.10
61018;BME280;48171;51.550;5.434;2023-03-16T12:04:57;101307.97;;;11.30;61.53
61018;BME280;48171;51.550;5.434;2023-03-16T12:10:28;101297.38;;;11.35;61.91
61018;BME280;48171;51.550;5.434;2023-03-16T12:17:51;101299.09;;;11.45;63.74
61018;BME280;48171;51.550;5.434;2023-03-16T12:20:31;101294.69;;;11.53;62.81
61018;BME280;48171;51.550;5.434;2023-03-16T12:23:01;101283.19;;;11.60;61.51
61018;BME280;48171;51.550;5.434;2023-03-16T12:25:29;101279.63;;;11.65;64.08
61018;BME280;48171;51.550;5.434;2023-03-16T12:27:56;101281.38;;;11.72;61.22
61018;BME280;48171;51.550;5.434;2023-03-16T12:35:59;101264.63;;;11.70;60.02
61018;BME280;48171;51.550;5.434;2023-03-16T12:46:14;101238.09;;;11.84;60.58
61018;BME280;48171;51.550;5.434;2023-03-16T12:48:46;101226.59;;;11.86;58.94
61018;BME280;48171;51.550;5.434;2023-03-16T12:51:13;101230.13;;;11.90;61.70
61018;BME280;48171;51.550;5.434;2023-03-16T12:53:45;101219.47;;;11.99;61.30
61018;BME280;48171;51.550;5.434;2023-03-16T12:56:18;101218.50;;;12.08;58.06
61018;BME280;48171;51.550;5.434;2023-03-16T12:58:47;101207.91;;;12.08;57.85
61018;BME280;48171;51.550;5.434;2023-03-16T13:01:15;101217.59;;;12.12;59.52
61018;BME280;48171;51.550;5.434;2023-03-16T13:03:41;101215.81;;;12.15;57.32
61018;BME280;48171;51.550;5.434;2023-03-16T13:06:06;101207.88;;;12.17;56.21
61018;BME280;48171;51.550;5.434;2023-03-16T13:08:41;101201.66;;;12.19;56.43
61018;BME280;48171;51.550;5.434;2023-03-16T13:11:09;101194.56;;;12.26;58.72
61018;BME280;48171;51.550;5.434;2023-03-16T13:13:34;101199.75;;;12.38;57.98
61018;BME280;48171;51.550;5.434;2023-03-16T13:16:21;101181.16;;;12.41;55.89
61018;BME280;48171;51.550;5.434;2023-03-16T13:18:47;101189.16;;;12.38;56.44
61018;BME280;48171;51.550;5.434;2023-03-16T13:21:35;101185.59;;;12.38;57.45
61018;BME280;48171;51.550;5.434;2023-03-16T13:27:03;101186.38;;;12.51;57.86
61018;BME280;48171;51.550;5.434;2023-03-16T13:29:30;101181.88;;;12.60;56.50
61018;BME280;48171;51.550;5.434;2023-03-16T13:31:57;101179.09;;;12.70;56.95
61018;BME280;48171;51.550;5.434;2023-03-16T13:34:26;101177.25;;;12.81;56.08
61018;BME280;48171;51.550;5.434;2023-03-16T13:36:54;101171.88;;;12.84;54.00
61018;BME280;48171;51.550;5.434;2023-03-16T13:39:21;101161.28;;;12.84;55.81
61018;BME280;48171;51.550;5.434;2023-03-16T13:44:21;101164.63;;;13.00;55.69
61018;BME280;48171;51.550;5.434;2023-03-16T13:46:47;101155.75;;;13.02;54.51
61018;BME280;48171;51.550;5.434;2023-03-16T13:49:14;101145.13;;;13.04;56.97
61018;BME280;48171;51.550;5.434;2023-03-16T13:51:40;101146.06;;;13.01;55.30
61018;BME280;48171;51.550;5.434;2023-03-16T13:54:26;101136.38;;;12.97;54.48
61018;BME280;48171;51.550;5.434;2023-03-16T13:56:57;101132.88;;;12.95;54.00
61018;BME280;48171;51.550;5.434;2023-03-16T13:59:22;101135.53;;;12.94;54.46
61018;BME280;48171;51.550;5.434;2023-03-16T14:01:53;101125.00;;;12.89;52.81
61018;BME280;48171;51.550;5.434;2023-03-16T14:04:20;101117.97;;;12.85;53.25
61018;BME280;48171;51.550;5.434;2023-03-16T14:06:51;101128.59;;;12.82;54.04
61018;BME280;48171;51.550;5.434;2023-03-16T14:09:20;101132.16;;;12.81;53.67
61018;BME280;48171;51.550;5.434;2023-03-16T14:11:45;101132.09;;;12.86;53.73
61018;BME280;48171;51.550;5.434;2023-03-16T14:14:13;101117.88;;;12.91;53.30
61018;BME280;48171;51.550;5.434;2023-03-16T14:16:38;101116.97;;;12.95;54.02
61018;BME280;48171;51.550;5.434;2023-03-16T14:19:10;101119.56;;;12.98;53.79
61018;BME280;48171;51.550;5.434;2023-03-16T14:21:42;101104.56;;;12.97;53.90